createdAt,value
2024-02-19T00:01:01.146Z,102716.57
2024-02-19T00:03:30.227Z,102709.67
2024-02-19T00:05:58.136Z,102730.47
2024-02-19T00:08:26.192Z,102730.50
2024-02-19T00:10:54.194Z,102728.47
2024-02-19T00:13:22.254Z,102740.27
2024-02-19T00:15:50.703Z,102741.09
2024-02-19T00:18:18.723Z,102745.97
2024-02-19T00:20:46.804Z,102744.73
2024-02-19T00:23:14.846Z,102746.78
2024-02-19T00:25:43.199Z,102741.88
2024-02-19T00:28:13.199Z,102741.48
2024-02-19T00:30:41.611Z,102743.91
2024-02-19T00:33:09.687Z,102735.77
2024-02-19T00:35:37.749Z,102737.76
2024-02-19T00:38:05.856Z,102738.19
2024-02-19T00:40:33.831Z,102740.60
2024-02-19T00:43:02.531Z,102738.12
2024-02-19T00:45:30.968Z,102741.78
2024-02-19T00:47:58.929Z,102745.84
2024-02-19T00:50:26.975Z,102752.34
2024-02-19T00:52:54.916Z,102746.66
2024-02-19T00:55:23.820Z,102740.54
2024-02-19T00:57:51.852Z,102742.56
2024-02-19T01:00:20.193Z,102751.52
2024-02-19T01:02:48.157Z,102751.52
2024-02-19T01:05:16.334Z,102750.28
2024-02-19T01:07:44.396Z,102749.83
2024-02-19T01:10:12.413Z,102742.53
2024-02-19T01:12:40.892Z,102750.25
2024-02-19T01:15:09.405Z,102753.09
2024-02-19T01:17:37.508Z,102763.27
2024-02-19T01:20:07.088Z,102754.70
2024-02-19T01:22:36.115Z,102752.28
2024-02-19T01:25:04.405Z,102757.58
2024-02-19T01:27:32.325Z,102748.95
2024-02-19T01:30:00.403Z,102756.30
2024-02-19T01:32:28.639Z,102747.30
2024-02-19T01:34:56.765Z,102739.95
2024-02-19T01:37:25.000Z,102742.41
2024-02-19T01:39:53.766Z,102737.89
2024-02-19T01:42:21.717Z,102723.21
2024-02-19T01:44:49.669Z,102722.81
2024-02-19T01:47:19.808Z,102730.53
2024-02-19T01:49:47.945Z,102737.47
2024-02-19T01:52:16.039Z,102725.66
2024-02-19T01:54:44.319Z,102735.44
2024-02-19T01:57:13.068Z,102731.77
2024-02-19T01:59:42.248Z,102733.02
2024-02-19T02:02:12.088Z,102734.26
2024-02-19T02:04:40.852Z,102733.87
2024-02-19T02:07:09.958Z,102726.12
2024-02-19T02:09:38.756Z,102717.95
2024-02-19T02:12:07.205Z,102719.19
2024-02-19T02:14:35.259Z,102715.91
2024-02-19T02:17:03.205Z,102711.44
2024-02-19T02:19:33.455Z,102706.59
2024-02-19T02:22:01.483Z,102705.78
2024-02-19T02:24:30.688Z,102698.42
2024-02-19T02:26:58.656Z,102712.29
2024-02-19T02:29:26.837Z,102690.28
2024-02-19T02:31:55.189Z,102682.56
2024-02-19T02:34:24.961Z,102699.66
2024-02-19T02:36:53.655Z,102699.20
2024-02-19T02:39:21.592Z,102695.97
2024-02-19T02:41:49.975Z,102699.99
2024-02-19T02:44:18.581Z,102704.05
2024-02-19T02:46:46.557Z,102696.30
2024-02-19T02:49:14.668Z,102699.89
2024-02-19T02:51:42.672Z,102696.23
2024-02-19T02:54:10.632Z,102702.70
2024-02-19T02:56:38.522Z,102703.09
2024-02-19T02:59:06.478Z,102700.65
2024-02-19T03:01:34.856Z,102701.43
2024-02-19T03:04:03.078Z,102704.24
2024-02-19T03:06:31.156Z,102700.61
2024-02-19T03:08:59.153Z,102712.38
2024-02-19T03:11:27.493Z,102707.05
2024-02-19T03:13:55.435Z,102716.80
2024-02-19T03:16:23.466Z,102707.02
2024-02-19T03:18:52.722Z,102709.87
2024-02-19T03:21:20.759Z,102707.80
2024-02-19T03:23:53.417Z,102713.46
2024-02-19T03:26:37.500Z,102714.70
2024-02-19T03:29:16.098Z,102729.35
2024-02-19T03:31:45.401Z,102715.52
2024-02-19T03:34:13.566Z,102718.30
2024-02-19T03:36:46.262Z,102717.09
2024-02-19T03:39:14.306Z,102711.77
2024-02-19T03:41:42.209Z,102710.09
2024-02-19T03:44:10.162Z,102715.78
2024-02-19T03:46:38.126Z,102714.97
2024-02-19T03:49:06.213Z,102713.34
2024-02-19T03:51:34.294Z,102712.09
2024-02-19T03:54:02.365Z,102710.45
2024-02-19T03:56:30.343Z,102707.97
2024-02-19T03:58:58.332Z,102709.21
2024-02-19T04:01:26.493Z,102722.23
2024-02-19T04:03:54.614Z,102699.83
2024-02-19T04:06:22.674Z,102705.13
2024-02-19T04:08:50.569Z,102712.81
2024-02-19T04:11:21.563Z,102702.64
2024-02-19T04:13:49.709Z,102709.21
2024-02-19T04:16:17.720Z,102728.31
2024-02-19T04:18:45.744Z,102714.84
2024-02-19T04:21:13.711Z,102720.13
2024-02-19T04:23:42.357Z,102718.89
2024-02-19T04:26:10.288Z,102718.11
2024-02-19T04:28:38.278Z,102708.30
2024-02-19T04:31:06.451Z,102707.48
2024-02-19T04:33:34.515Z,102722.98
2024-02-19T04:36:02.521Z,102721.31
2024-02-19T04:38:30.496Z,102735.96
2024-02-19T04:40:58.394Z,102735.18
2024-02-19T04:43:26.427Z,102726.97
2024-02-19T04:45:54.525Z,102725.30
2024-02-19T04:48:22.406Z,102720.00
2024-02-19T04:50:50.386Z,102735.05
2024-02-19T04:53:20.762Z,102728.47
2024-02-19T04:55:48.721Z,102727.27
2024-02-19T04:58:18.828Z,102732.98
2024-02-19T05:00:48.165Z,102731.74
2024-02-19T05:03:18.255Z,102739.85
2024-02-19T05:05:47.080Z,102736.19
2024-02-19T05:08:15.236Z,102735.34
2024-02-19T05:10:43.538Z,102732.46
2024-02-19T05:13:11.595Z,102733.34
2024-02-19T05:15:39.573Z,102730.04
2024-02-19T05:18:08.288Z,102734.59
2024-02-19T05:20:37.727Z,102728.93
2024-02-19T05:23:06.377Z,102721.60
2024-02-19T05:25:34.377Z,102726.15
2024-02-19T05:28:02.552Z,102729.45
2024-02-19T05:30:30.682Z,102729.52
2024-02-19T05:32:58.642Z,102731.58
2024-02-19T05:35:27.536Z,102735.66
2024-02-19T05:37:55.536Z,102739.36
2024-02-19T05:40:23.578Z,102738.58
2024-02-19T05:42:51.915Z,102740.18
2024-02-19T05:45:19.798Z,102730.83
2024-02-19T05:47:49.344Z,102734.09
2024-02-19T05:50:18.110Z,102732.85
2024-02-19T05:52:46.277Z,102732.49
2024-02-19T05:55:14.391Z,102730.83
2024-02-19T05:57:42.478Z,102735.34
2024-02-19T06:00:16.134Z,102736.95
2024-02-19T06:02:44.898Z,102736.55
2024-02-19T06:05:13.333Z,102727.16
2024-02-19T06:07:41.494Z,102736.16
2024-02-19T06:10:10.022Z,102732.85
2024-02-19T06:12:38.023Z,102735.70
2024-02-19T06:15:07.003Z,102743.84
2024-02-19T06:17:35.135Z,102751.98
2024-02-19T06:20:03.271Z,102751.56
2024-02-19T06:22:31.268Z,102759.70
2024-02-19T06:24:59.477Z,102757.25
2024-02-19T06:27:27.584Z,102762.12
2024-02-19T06:29:55.546Z,102767.38
2024-02-19T06:32:24.563Z,102768.59
2024-02-19T06:34:52.786Z,102775.89
2024-02-19T06:37:21.374Z,102760.45
2024-02-19T06:39:49.337Z,102762.45
2024-02-19T06:42:17.468Z,102763.27
2024-02-19T06:44:45.438Z,102760.78
2024-02-19T06:47:15.627Z,102764.45
2024-02-19T06:49:43.595Z,102755.87
2024-02-19T06:52:11.712Z,102752.21
2024-02-19T06:54:39.774Z,102757.54
2024-02-19T06:57:07.761Z,102759.60
2024-02-19T06:59:35.727Z,102766.14
2024-02-19T07:02:07.882Z,102766.60
2024-02-19T07:04:39.511Z,102760.48
2024-02-19T07:07:11.571Z,102756.82
2024-02-19T07:09:40.396Z,102770.36
2024-02-19T07:12:08.857Z,102772.00
2024-02-19T07:14:36.834Z,102763.85
2024-02-19T07:17:05.107Z,102771.67
2024-02-19T07:19:33.356Z,102776.15
2024-02-19T07:22:01.484Z,102785.93
2024-02-19T07:24:30.872Z,102795.25
2024-02-19T07:26:59.986Z,102790.30
2024-02-19T07:29:28.549Z,102795.18
2024-02-19T07:31:56.501Z,102802.54
2024-02-19T07:34:24.679Z,102803.72
2024-02-19T07:36:55.039Z,102817.13
2024-02-19T07:39:23.063Z,102822.03
2024-02-19T07:41:51.118Z,102825.27
2024-02-19T07:44:19.037Z,102824.45
2024-02-19T07:46:47.073Z,102834.95
2024-02-19T07:49:15.142Z,102836.32
2024-02-19T07:51:43.287Z,102842.92
2024-02-19T07:54:11.392Z,102846.91
2024-02-19T07:56:39.456Z,102847.66
2024-02-19T07:59:08.342Z,102844.00
2024-02-19T08:01:36.364Z,102852.99
2024-02-19T08:04:04.571Z,102852.60
2024-02-19T08:06:32.758Z,102853.45
2024-02-19T08:09:01.902Z,102862.09
2024-02-19T08:11:30.443Z,102864.96
2024-02-19T08:13:58.567Z,102877.16
2024-02-19T08:16:28.762Z,102875.91
2024-02-19T08:18:57.209Z,102882.10
2024-02-19T08:21:25.798Z,102880.04
2024-02-19T08:23:53.863Z,102879.61
2024-02-19T08:26:22.143Z,102878.37
2024-02-19T08:28:50.048Z,102880.37
2024-02-19T08:31:18.082Z,102882.33
2024-02-19T08:33:46.232Z,102883.99
2024-02-19T08:36:14.224Z,102882.62
2024-02-19T08:38:42.178Z,102887.43
2024-02-19T08:41:10.163Z,102875.10
2024-02-19T08:43:38.100Z,102883.14
2024-02-19T08:46:06.380Z,102887.59
2024-02-19T08:48:34.418Z,102874.55
2024-02-19T08:51:03.313Z,102881.87
2024-02-19T08:53:31.331Z,102888.41
2024-02-19T08:55:59.271Z,102886.35
2024-02-19T08:58:28.198Z,102898.12
2024-02-19T09:00:56.339Z,102895.57
2024-02-19T09:03:24.539Z,102894.66
2024-02-19T09:05:52.663Z,102892.04
2024-02-19T09:08:20.728Z,102887.46
2024-02-19T09:10:48.737Z,102882.85
2024-02-19T09:13:16.879Z,102889.59
2024-02-19T09:15:45.082Z,102891.81
2024-02-19T09:18:13.171Z,102894.85
2024-02-19T09:20:41.792Z,102892.53
2024-02-19T09:23:09.771Z,102888.51
2024-02-19T09:25:38.516Z,102896.06
2024-02-19T09:28:09.536Z,102892.17
2024-02-19T09:30:37.636Z,102900.18
2024-02-19T09:33:06.331Z,102896.81
2024-02-19T09:35:34.899Z,102901.29
2024-02-19T09:38:03.033Z,102909.04
2024-02-19T09:40:36.945Z,102913.78
2024-02-19T09:43:08.381Z,102912.84
2024-02-19T09:45:38.586Z,102911.04
2024-02-19T09:48:08.252Z,102913.91
2024-02-19T09:50:38.577Z,102909.73
2024-02-19T09:53:12.309Z,102902.66
2024-02-19T09:55:41.382Z,102909.86
2024-02-19T09:58:09.893Z,102916.37
2024-02-19T10:00:38.141Z,102911.10
2024-02-19T10:03:06.346Z,102915.13
2024-02-19T10:05:35.405Z,102910.48
2024-02-19T10:08:06.714Z,102912.84
2024-02-19T10:10:36.461Z,102908.09
2024-02-19T10:13:04.465Z,102913.95
2024-02-19T10:15:32.424Z,102919.67
2024-02-19T10:18:01.815Z,102905.77
2024-02-19T10:20:30.737Z,102914.99
2024-02-19T10:22:58.678Z,102913.23
2024-02-19T10:25:26.709Z,102907.67
2024-02-19T10:27:54.708Z,102915.35
2024-02-19T10:30:22.651Z,102910.88
2024-02-19T10:32:50.939Z,102912.05
2024-02-19T10:35:19.240Z,102912.84
2024-02-19T10:37:47.215Z,102916.47
2024-02-19T10:40:20.039Z,102917.80
2024-02-19T10:42:52.749Z,102917.71
2024-02-19T10:45:23.751Z,102915.62
2024-02-19T10:47:53.485Z,102907.48
2024-02-19T10:50:22.002Z,102912.41
2024-02-19T10:52:50.749Z,102900.31
2024-02-19T10:55:28.663Z,102904.43
2024-02-19T10:58:01.324Z,102904.43
2024-02-19T11:00:30.598Z,102904.73
2024-02-19T11:03:08.898Z,102906.23
2024-02-19T11:05:41.150Z,102908.55
2024-02-19T11:08:23.632Z,102905.84
2024-02-19T11:10:57.146Z,102902.54
2024-02-19T11:13:29.301Z,102887.20
2024-02-19T11:15:57.794Z,102907.21
2024-02-19T11:18:25.989Z,102894.88
2024-02-19T11:20:54.077Z,102889.16
2024-02-19T11:23:22.790Z,102878.70
2024-02-19T11:25:50.836Z,102878.77
2024-02-19T11:28:18.848Z,102879.16
2024-02-19T11:30:50.208Z,102878.24
2024-02-19T11:33:18.267Z,102881.28
2024-02-19T11:35:46.640Z,102879.84
2024-02-19T11:38:14.719Z,102871.38
2024-02-19T11:40:42.751Z,102875.03
2024-02-19T11:43:12.258Z,102865.62
2024-02-19T11:45:40.708Z,102862.77
2024-02-19T11:48:09.418Z,102860.94
2024-02-19T11:50:37.491Z,102859.96
2024-02-19T11:53:06.959Z,102854.92
2024-02-19T11:55:36.048Z,102851.85
2024-02-19T11:58:04.434Z,102845.77
2024-02-19T12:00:33.295Z,102846.95
2024-02-19T12:03:02.304Z,102847.93
2024-02-19T12:05:30.501Z,102846.16
2024-02-19T12:07:58.675Z,102832.36
2024-02-19T12:10:26.959Z,102831.48
2024-02-19T12:12:56.611Z,102824.48
2024-02-19T12:15:24.616Z,102825.00
2024-02-19T12:17:54.680Z,102828.38
2024-02-19T12:20:23.092Z,102813.69
2024-02-19T12:22:51.199Z,102808.59
2024-02-19T12:25:19.240Z,102804.56
2024-02-19T12:27:47.280Z,102796.85
2024-02-19T12:30:15.374Z,102791.81
2024-02-19T12:32:45.772Z,102788.61
2024-02-19T12:35:14.671Z,102788.12
2024-02-19T12:37:42.832Z,102780.76
2024-02-19T12:40:15.773Z,102780.76
2024-02-19T12:42:43.936Z,102779.26
2024-02-19T12:45:12.082Z,102763.79
2024-02-19T12:47:40.231Z,102772.48
2024-02-19T12:50:10.699Z,102765.03
2024-02-19T12:52:38.840Z,102765.03
2024-02-19T12:55:08.073Z,102763.07
2024-02-19T12:57:36.220Z,102754.93
2024-02-19T13:00:09.487Z,102760.91
2024-02-19T13:02:37.927Z,102755.52
2024-02-19T13:05:06.266Z,102759.90
2024-02-19T13:07:34.434Z,102763.79
2024-02-19T13:10:02.544Z,102775.53
2024-02-19T13:12:30.873Z,102774.02
2024-02-19T13:15:00.405Z,102767.68
2024-02-19T13:17:36.384Z,102775.27
2024-02-19T13:20:12.557Z,102772.68
2024-02-19T13:22:40.592Z,102772.52
2024-02-19T13:25:11.517Z,102776.58
2024-02-19T13:27:39.463Z,102771.08
2024-02-19T13:30:08.256Z,102778.41
2024-02-19T13:32:36.271Z,102769.80
2024-02-19T13:35:05.757Z,102759.60
2024-02-19T13:37:33.793Z,102763.27
2024-02-19T13:40:01.856Z,102767.84
2024-02-19T13:42:30.277Z,102761.04
2024-02-19T13:44:58.228Z,102759.44
2024-02-19T13:47:26.445Z,102757.64
2024-02-19T13:49:54.581Z,102757.74
2024-02-19T13:52:22.643Z,102757.74
2024-02-19T13:54:51.097Z,102751.10
2024-02-19T13:57:19.443Z,102746.88
2024-02-19T13:59:48.212Z,102758.16
2024-02-19T14:02:17.495Z,102750.74
2024-02-19T14:04:45.676Z,102758.69
2024-02-19T14:07:13.872Z,102754.89
2024-02-19T14:09:43.967Z,102764.57
2024-02-19T14:12:11.935Z,102750.94
2024-02-19T14:14:39.935Z,102747.18
2024-02-19T14:17:12.634Z,102739.36
2024-02-19T14:19:41.483Z,102737.30
2024-02-19T14:22:09.593Z,102730.30
2024-02-19T14:24:37.721Z,102735.24
2024-02-19T14:27:07.162Z,102736.06
2024-02-19T14:29:35.204Z,102723.77
2024-02-19T14:32:03.259Z,102726.61
2024-02-19T14:34:34.995Z,102733.51
2024-02-19T14:37:03.111Z,102727.43
2024-02-19T14:39:32.853Z,102722.03
2024-02-19T14:42:01.013Z,102719.28
2024-02-19T14:44:29.022Z,102728.70
2024-02-19T14:47:02.538Z,102722.95
2024-02-19T14:49:35.099Z,102738.91
2024-02-19T14:52:03.823Z,102734.91
2024-02-19T14:54:32.003Z,102734.66
2024-02-19T14:57:01.485Z,102738.55
2024-02-19T14:59:30.636Z,102736.32
2024-02-19T15:01:58.842Z,102737.76
2024-02-19T15:04:27.501Z,102734.72
2024-02-19T15:06:57.543Z,102745.05
2024-02-19T15:09:26.314Z,102732.69
2024-02-19T15:11:54.357Z,102732.89
2024-02-19T15:14:22.869Z,102738.22
2024-02-19T15:16:50.966Z,102725.27
2024-02-19T15:19:19.187Z,102733.57
2024-02-19T15:21:47.294Z,102722.65
2024-02-19T15:24:15.493Z,102718.63
2024-02-19T15:26:43.493Z,102723.47
2024-02-19T15:29:12.876Z,102728.84
2024-02-19T15:31:41.370Z,102720.33
2024-02-19T15:34:09.909Z,102716.66
2024-02-19T15:36:38.138Z,102723.30
2024-02-19T15:39:06.410Z,102717.16
2024-02-19T15:41:35.100Z,102711.08
2024-02-19T15:44:06.300Z,102714.41
2024-02-19T15:46:34.605Z,102713.66
2024-02-19T15:49:06.247Z,102700.25
2024-02-19T15:51:35.973Z,102704.73
2024-02-19T15:54:04.602Z,102718.34
2024-02-19T15:56:32.707Z,102708.49
2024-02-19T15:59:00.817Z,102700.68
2024-02-19T16:01:29.961Z,102704.80
2024-02-19T16:03:58.084Z,102716.24
2024-02-19T16:06:30.280Z,102706.50
2024-02-19T16:08:58.795Z,102715.55
2024-02-19T16:11:26.796Z,102709.48
2024-02-19T16:13:54.898Z,102708.20
2024-02-19T16:16:22.944Z,102711.93
2024-02-19T16:18:51.130Z,102709.08
2024-02-19T16:21:19.144Z,102717.39
2024-02-19T16:23:47.277Z,102710.88
2024-02-19T16:26:16.698Z,102709.24
2024-02-19T16:28:44.962Z,102714.18
2024-02-19T16:31:15.733Z,102716.24
2024-02-19T16:33:43.953Z,102719.55
2024-02-19T16:36:12.729Z,102713.89
2024-02-19T16:38:42.192Z,102701.66
2024-02-19T16:41:10.696Z,102695.55
2024-02-19T16:43:38.795Z,102692.24
2024-02-19T16:46:07.039Z,102698.39
2024-02-19T16:48:40.977Z,102691.88
2024-02-19T16:51:11.833Z,102688.28
2024-02-19T16:53:40.373Z,102691.95
2024-02-19T16:56:08.829Z,102696.52
2024-02-19T16:58:37.436Z,102688.38
2024-02-19T17:01:07.069Z,102698.95
2024-02-19T17:03:35.135Z,102711.63
2024-02-19T17:06:04.130Z,102707.51
2024-02-19T17:08:32.304Z,102700.55
2024-02-19T17:11:00.549Z,102707.09
2024-02-19T17:13:28.987Z,102696.79
2024-02-19T17:15:57.240Z,102697.24
2024-02-19T17:18:25.429Z,102697.60
2024-02-19T17:20:53.399Z,102700.13
2024-02-19T17:23:22.285Z,102694.40
2024-02-19T17:25:50.315Z,102706.70
2024-02-19T17:28:19.795Z,102702.70
2024-02-19T17:30:48.352Z,102703.49
2024-02-19T17:33:16.652Z,102704.73
2024-02-19T17:35:45.962Z,102697.05
2024-02-19T17:38:14.319Z,102692.66
2024-02-19T17:40:43.362Z,102696.75
2024-02-19T17:43:11.490Z,102698.88
2024-02-19T17:45:39.768Z,102698.16
2024-02-19T17:48:11.253Z,102697.44
2024-02-19T17:50:43.271Z,102702.77
2024-02-19T17:53:11.397Z,102702.87
2024-02-19T17:55:39.477Z,102702.51
2024-02-19T17:58:07.924Z,102711.14
2024-02-19T18:00:35.941Z,102700.58
2024-02-19T18:03:04.284Z,102698.20
2024-02-19T18:05:32.408Z,102692.53
2024-02-19T18:08:00.348Z,102696.66
2024-02-19T18:10:28.416Z,102696.72
2024-02-19T18:12:56.512Z,102691.85
2024-02-19T18:15:26.300Z,102704.11
2024-02-19T18:17:54.771Z,102703.30
2024-02-19T18:20:23.044Z,102704.18
2024-02-19T18:22:51.158Z,102709.12
2024-02-19T18:25:19.377Z,102704.18
2024-02-19T18:27:47.562Z,102711.17
2024-02-19T18:30:16.069Z,102704.18
2024-02-19T18:32:44.204Z,102711.89
2024-02-19T18:35:12.624Z,102708.23
2024-02-19T18:37:40.859Z,102707.80
2024-02-19T18:40:11.007Z,102701.27
2024-02-19T18:42:40.922Z,102708.59
2024-02-19T18:45:09.539Z,102709.41
2024-02-19T18:47:40.138Z,102702.80
2024-02-19T18:50:09.429Z,102697.90
2024-02-19T18:52:37.720Z,102691.72
2024-02-19T18:55:06.631Z,102695.48
2024-02-19T18:57:34.723Z,102692.96
2024-02-19T19:00:02.866Z,102695.05
2024-02-19T19:02:30.976Z,102692.53
2024-02-19T19:04:59.261Z,102694.59
2024-02-19T19:07:27.344Z,102699.96
2024-02-19T19:09:56.290Z,102701.98
2024-02-19T19:12:26.951Z,102698.32
2024-02-19T19:14:55.008Z,102706.56
2024-02-19T19:17:23.526Z,102699.24
2024-02-19T19:19:51.699Z,102691.06
2024-02-19T19:22:21.338Z,102691.85
2024-02-19T19:24:49.458Z,102691.06
2024-02-19T19:27:18.650Z,102691.85
2024-02-19T19:29:46.590Z,102700.45
2024-02-19T19:32:18.743Z,102692.70
2024-02-19T19:34:46.856Z,102692.70
2024-02-19T19:37:14.958Z,102689.82
2024-02-19T19:39:42.928Z,102681.61
2024-02-19T19:42:10.846Z,102687.80
2024-02-19T19:44:40.147Z,102698.39
2024-02-19T19:47:08.234Z,102690.34
2024-02-19T19:49:36.297Z,102694.43
2024-02-19T19:52:04.533Z,102691.13
2024-02-19T19:54:32.669Z,102694.01
2024-02-19T19:57:00.627Z,102686.68
2024-02-19T19:59:33.214Z,102689.88
2024-02-19T20:02:01.319Z,102689.52
2024-02-19T20:04:33.181Z,102687.92
2024-02-19T20:07:01.448Z,102679.78
2024-02-19T20:09:29.655Z,102680.24
2024-02-19T20:11:57.563Z,102683.51
2024-02-19T20:14:25.536Z,102681.45
2024-02-19T20:16:53.549Z,102670.89
2024-02-19T20:19:21.644Z,102673.41
2024-02-19T20:21:49.657Z,102678.77
2024-02-19T20:24:17.620Z,102671.41
2024-02-19T20:26:46.347Z,102669.41
2024-02-19T20:29:14.438Z,102663.70
2024-02-19T20:31:42.416Z,102662.09
2024-02-19T20:34:10.567Z,102663.79
2024-02-19T20:36:40.497Z,102660.13
2024-02-19T20:39:09.241Z,102647.51
2024-02-19T20:41:37.215Z,102654.05
2024-02-19T20:44:05.307Z,102656.08
2024-02-19T20:46:36.406Z,102647.96
2024-02-19T20:49:04.545Z,102650.45
2024-02-19T20:51:32.598Z,102650.91
2024-02-19T20:54:00.515Z,102641.95
2024-02-19T20:56:28.576Z,102645.61
2024-02-19T20:58:56.582Z,102646.85
2024-02-19T21:01:25.876Z,102643.16
2024-02-19T21:03:53.899Z,102641.55
2024-02-19T21:06:22.542Z,102637.92
2024-02-19T21:08:50.499Z,102636.29
2024-02-19T21:11:18.638Z,102638.81
2024-02-19T21:13:46.602Z,102640.48
2024-02-19T21:16:14.626Z,102634.00
2024-02-19T21:18:47.453Z,102641.42
2024-02-19T21:21:26.982Z,102639.07
2024-02-19T21:24:02.030Z,102634.23
2024-02-19T21:26:30.584Z,102638.32
2024-02-19T21:28:58.540Z,102625.30
2024-02-19T21:31:26.716Z,102627.79
2024-02-19T21:33:55.083Z,102622.85
2024-02-19T21:36:23.168Z,102627.79
2024-02-19T21:38:51.894Z,102620.01
2024-02-19T21:41:19.972Z,102623.67
2024-02-19T21:43:47.919Z,102611.87
2024-02-19T21:46:15.898Z,102614.28
2024-02-19T21:48:44.856Z,102628.15
2024-02-19T21:51:12.943Z,102616.34
2024-02-19T21:53:40.922Z,102629.39
2024-02-19T21:56:09.091Z,102613.92
2024-02-19T21:58:37.068Z,102622.13
2024-02-19T22:01:06.241Z,102617.69
2024-02-19T22:03:34.429Z,102623.51
2024-02-19T22:06:02.623Z,102612.09
2024-02-19T22:08:30.765Z,102615.88
2024-02-19T22:10:58.751Z,102610.66
2024-02-19T22:13:26.965Z,102609.12
2024-02-19T22:15:56.095Z,102615.30
2024-02-19T22:18:24.869Z,102604.38
2024-02-19T22:20:53.544Z,102601.59
2024-02-19T22:23:21.669Z,102597.61
2024-02-19T22:25:50.584Z,102601.76
2024-02-19T22:28:19.044Z,102594.08
2024-02-19T22:30:47.160Z,102587.24
2024-02-19T22:33:15.568Z,102584.07
2024-02-19T22:35:43.522Z,102580.08
2024-02-19T22:38:11.474Z,102581.03
2024-02-19T22:40:39.683Z,102571.71
2024-02-19T22:43:11.659Z,102570.53
2024-02-19T22:45:40.091Z,102579.13
2024-02-19T22:48:11.449Z,102582.07
2024-02-19T22:50:40.344Z,102583.35
2024-02-19T22:53:08.496Z,102582.95
2024-02-19T22:55:36.607Z,102583.41
2024-02-19T22:58:05.128Z,102586.33
2024-02-19T23:00:41.321Z,102581.03
2024-02-19T23:03:09.261Z,102578.18
2024-02-19T23:05:37.254Z,102579.88
2024-02-19T23:08:05.620Z,102585.57
2024-02-19T23:10:33.706Z,102588.84
2024-02-19T23:13:01.806Z,102589.27
2024-02-19T23:15:29.778Z,102585.18
2024-02-19T23:17:58.018Z,102592.11
2024-02-19T23:20:26.547Z,102592.11
2024-02-19T23:22:54.723Z,102587.70
2024-02-19T23:25:22.946Z,102595.48
2024-02-19T23:27:50.981Z,102581.23
2024-02-19T23:30:19.825Z,102590.18
2024-02-19T23:32:48.021Z,102587.70
2024-02-19T23:35:16.098Z,102592.99
2024-02-19T23:37:44.164Z,102595.84
2024-02-19T23:40:19.788Z,102607.25
2024-02-19T23:42:49.076Z,102606.01
2024-02-19T23:45:17.275Z,102616.60
2024-02-19T23:47:45.376Z,102613.37
2024-02-19T23:50:13.611Z,102618.34
2024-02-19T23:52:44.801Z,102617.95
2024-02-19T23:55:14.948Z,102611.05
2024-02-19T23:57:43.027Z,102615.56
